createdAt,value
2024-04-30T00:01:58.021Z,12.90
2024-04-30T00:07:02.208Z,13.00
2024-04-30T00:12:06.696Z,13.00
2024-04-30T00:17:13.576Z,13.40
2024-04-30T00:22:18.014Z,13.30
2024-04-30T00:27:22.352Z,13.30
2024-04-30T00:32:29.430Z,13.40
2024-04-30T00:37:33.722Z,13.50
2024-04-30T00:42:38.400Z,13.50
2024-04-30T00:47:45.806Z,13.20
2024-04-30T00:52:50.334Z,12.80
2024-04-30T00:57:54.900Z,12.60
2024-04-30T01:03:02.034Z,12.80
2024-04-30T01:08:06.365Z,12.70
2024-04-30T01:13:11.450Z,12.70
2024-04-30T01:18:19.107Z,13.40
2024-04-30T01:23:25.646Z,13.90
2024-04-30T01:28:29.916Z,14.10
2024-04-30T01:33:34.242Z,14.10
2024-04-30T01:38:41.375Z,14.00
2024-04-30T01:43:45.164Z,14.10
2024-04-30T01:48:49.152Z,14.50
2024-04-30T01:53:56.039Z,15.00
2024-04-30T01:58:59.778Z,15.10
2024-04-30T02:04:03.979Z,15.20
2024-04-30T02:09:10.891Z,14.60
2024-04-30T02:14:15.577Z,13.70
2024-04-30T02:19:19.446Z,13.00
2024-04-30T02:24:26.425Z,12.40
2024-04-30T02:29:30.393Z,12.00
2024-04-30T02:34:34.399Z,11.90
2024-04-30T02:39:41.448Z,12.10
2024-04-30T02:44:45.942Z,12.00
2024-04-30T02:49:49.868Z,12.00
2024-04-30T02:54:56.678Z,11.70
2024-04-30T03:00:00.843Z,11.50
2024-04-30T03:05:04.765Z,11.40
2024-04-30T03:10:12.024Z,11.20
2024-04-30T03:15:17.869Z,11.00
2024-04-30T03:20:22.244Z,11.20
2024-04-30T03:25:29.129Z,11.50
2024-04-30T03:30:33.604Z,11.50
2024-04-30T03:35:37.856Z,11.80
2024-04-30T03:40:45.008Z,11.50
2024-04-30T03:45:49.200Z,11.30
2024-04-30T03:50:55.361Z,11.50
2024-04-30T03:56:02.611Z,11.40
2024-04-30T04:01:06.926Z,11.20
2024-04-30T04:06:12.632Z,11.10
2024-04-30T04:11:34.162Z,11.00
2024-04-30T04:16:38.147Z,10.80
2024-04-30T04:21:42.677Z,10.70
2024-04-30T04:26:49.748Z,10.60
2024-04-30T04:31:53.753Z,10.50
2024-04-30T04:36:58.346Z,10.60
2024-04-30T04:42:06.066Z,10.40
2024-04-30T04:47:10.352Z,10.60
2024-04-30T04:52:15.334Z,10.80
2024-04-30T04:57:21.800Z,10.90
2024-04-30T05:02:26.112Z,10.90
2024-04-30T05:07:30.293Z,10.80
2024-04-30T05:12:39.285Z,10.80
2024-04-30T05:17:45.889Z,10.90
2024-04-30T05:22:51.214Z,11.40
2024-04-30T05:27:59.373Z,11.70
2024-04-30T05:33:03.646Z,12.10
2024-04-30T05:38:07.770Z,12.60
2024-04-30T05:43:17.338Z,13.20
2024-04-30T05:48:21.343Z,13.60
2024-04-30T05:53:25.517Z,13.90
2024-04-30T05:58:32.730Z,14.40
2024-04-30T06:03:36.908Z,14.80
2024-04-30T06:08:41.838Z,15.20
2024-04-30T06:13:48.643Z,15.60
2024-04-30T06:18:52.503Z,16.10
2024-04-30T06:23:56.445Z,16.50
2024-04-30T06:29:03.234Z,17.00
2024-04-30T06:34:07.643Z,17.30
2024-04-30T06:39:11.651Z,17.80
2024-04-30T06:44:18.502Z,18.30
2024-04-30T06:49:25.013Z,18.70
2024-04-30T06:54:30.832Z,19.10
2024-04-30T06:59:37.616Z,19.70
2024-04-30T07:04:41.901Z,20.30
2024-04-30T07:09:45.778Z,21.00
2024-04-30T07:14:52.297Z,20.80
2024-04-30T07:19:56.146Z,21.40
2024-04-30T07:25:00.256Z,21.10
2024-04-30T07:30:07.785Z,20.80
2024-04-30T07:35:11.893Z,20.90
2024-04-30T07:40:16.614Z,21.30
2024-04-30T07:45:23.017Z,21.10
2024-04-30T07:50:27.194Z,20.70
2024-04-30T07:55:31.404Z,19.90
2024-04-30T08:00:38.338Z,19.90
2024-04-30T08:05:43.566Z,19.90
2024-04-30T08:10:48.183Z,20.40
2024-04-30T08:15:55.050Z,21.30
2024-04-30T08:20:58.782Z,21.50
2024-04-30T08:26:02.997Z,21.80
2024-04-30T08:31:09.807Z,22.10
2024-04-30T08:36:13.848Z,22.00
2024-04-30T08:41:17.982Z,22.10
2024-04-30T08:46:24.728Z,23.00
2024-04-30T08:51:30.060Z,23.30
2024-04-30T08:56:36.990Z,22.40
2024-04-30T09:01:47.399Z,22.30
2024-04-30T09:06:52.267Z,22.80
2024-04-30T09:11:56.570Z,22.40
2024-04-30T09:17:03.910Z,22.40
2024-04-30T09:22:10.063Z,23.40
2024-04-30T09:27:14.009Z,25.10
2024-04-30T09:32:25.957Z,25.10
2024-04-30T09:37:35.422Z,25.70
2024-04-30T09:42:41.933Z,26.20
2024-04-30T09:47:50.494Z,24.70
2024-04-30T09:52:54.853Z,25.40
2024-04-30T09:58:01.662Z,25.70
2024-04-30T10:03:11.623Z,26.40
2024-04-30T10:08:17.334Z,26.70
2024-04-30T10:13:25.620Z,26.70
2024-04-30T10:18:35.644Z,26.40
2024-04-30T10:23:42.718Z,27.40
2024-04-30T10:28:47.389Z,27.10
2024-04-30T10:34:00.952Z,27.60
2024-04-30T10:39:05.226Z,26.40
2024-04-30T10:44:11.511Z,26.40
2024-04-30T10:49:22.985Z,27.00
2024-04-30T10:54:29.689Z,26.50
2024-04-30T10:59:34.904Z,26.40
2024-04-30T11:04:42.121Z,26.50
2024-04-30T11:09:47.433Z,26.60
2024-04-30T11:14:53.113Z,27.10
2024-04-30T11:20:02.203Z,27.20
2024-04-30T11:25:06.488Z,26.80
2024-04-30T11:30:11.818Z,27.70
2024-04-30T11:35:18.933Z,28.20
2024-04-30T11:40:22.995Z,27.40
2024-04-30T11:45:35.320Z,28.00
2024-04-30T11:50:43.198Z,27.60
2024-04-30T11:55:47.692Z,28.10
2024-04-30T12:00:52.095Z,29.30
2024-04-30T12:06:07.047Z,29.10
2024-04-30T12:11:13.472Z,29.00
2024-04-30T12:16:20.755Z,29.60
2024-04-30T12:21:27.451Z,29.70
2024-04-30T12:26:35.150Z,29.10
2024-04-30T12:31:43.629Z,29.60
2024-04-30T12:36:50.675Z,30.50
2024-04-30T12:41:54.643Z,30.40
2024-04-30T12:46:58.979Z,29.10
2024-04-30T12:52:09.482Z,29.70
2024-04-30T12:57:13.574Z,29.10
2024-04-30T13:02:17.485Z,28.30
2024-04-30T13:07:24.228Z,27.60
2024-04-30T13:12:28.954Z,27.30
2024-04-30T13:17:33.589Z,27.30
2024-04-30T13:22:42.072Z,26.90
2024-04-30T13:27:46.710Z,26.30
2024-04-30T13:32:50.760Z,25.90
2024-04-30T13:37:57.548Z,25.50
2024-04-30T13:43:01.631Z,25.80
2024-04-30T13:48:05.438Z,26.40
2024-04-30T13:53:12.315Z,26.20
2024-04-30T13:58:16.312Z,25.90
2024-04-30T14:03:20.730Z,25.50
2024-04-30T14:08:29.111Z,25.50
2024-04-30T14:13:33.049Z,25.20
2024-04-30T14:18:38.249Z,25.00
2024-04-30T14:23:44.993Z,24.90
2024-04-30T14:28:49.024Z,25.10
2024-04-30T14:33:53.401Z,25.00
2024-04-30T14:39:00.393Z,24.80
2024-04-30T14:44:05.016Z,24.90
2024-04-30T14:49:09.882Z,25.00
2024-04-30T14:54:16.952Z,25.00
2024-04-30T14:59:23.246Z,24.90
2024-04-30T15:04:27.510Z,24.60
2024-04-30T15:09:35.666Z,24.40
2024-04-30T15:14:40.276Z,24.60
2024-04-30T15:19:44.584Z,24.80
2024-04-30T15:24:51.428Z,24.90
2024-04-30T15:29:56.721Z,24.80
2024-04-30T15:35:02.278Z,24.60
2024-04-30T15:40:10.416Z,24.60
2024-04-30T15:45:14.902Z,24.50
2024-04-30T15:50:19.935Z,24.40
2024-04-30T15:55:26.802Z,24.30
2024-04-30T16:00:31.328Z,24.30
2024-04-30T16:05:35.128Z,24.30
2024-04-30T16:10:41.985Z,24.40
2024-04-30T16:15:46.850Z,24.20
2024-04-30T16:20:52.532Z,24.20
2024-04-30T16:25:59.472Z,24.20
2024-04-30T16:31:07.361Z,24.10
2024-04-30T16:36:13.593Z,24.00
2024-04-30T16:41:21.720Z,23.90
2024-04-30T16:46:25.477Z,23.80
2024-04-30T16:51:30.067Z,23.80
2024-04-30T16:56:41.878Z,23.70
2024-04-30T17:01:50.784Z,23.60
2024-04-30T17:06:56.106Z,23.50
2024-04-30T17:12:03.098Z,23.20
2024-04-30T17:17:07.661Z,22.70
2024-04-30T17:22:11.781Z,22.00
2024-04-30T17:27:18.507Z,21.30
2024-04-30T17:32:23.443Z,20.90
2024-04-30T17:37:27.832Z,20.60
2024-04-30T17:42:34.744Z,20.50
2024-04-30T17:47:40.147Z,20.20
2024-04-30T17:52:44.419Z,20.00
2024-04-30T17:57:51.144Z,19.80
2024-04-30T18:02:55.265Z,19.50
2024-04-30T18:07:59.038Z,19.20
2024-04-30T18:13:05.672Z,19.00
2024-04-30T18:18:09.954Z,18.50
2024-04-30T18:23:13.788Z,18.20
2024-04-30T18:28:23.607Z,17.90
2024-04-30T18:33:27.889Z,17.60
2024-04-30T18:38:32.212Z,17.50
2024-04-30T18:43:38.530Z,17.60
2024-04-30T18:48:45.265Z,17.40
2024-04-30T18:53:49.433Z,17.10
2024-04-30T18:58:57.061Z,17.10
2024-04-30T19:04:01.537Z,17.10
2024-04-30T19:09:08.986Z,16.70
2024-04-30T19:14:23.360Z,16.40
2024-04-30T19:19:32.579Z,16.30
2024-04-30T19:24:45.212Z,16.20
2024-04-30T19:29:52.783Z,16.20
2024-04-30T19:34:59.362Z,16.10
2024-04-30T19:40:07.116Z,16.10
2024-04-30T19:45:16.997Z,16.20
2024-04-30T19:50:32.311Z,16.20
2024-04-30T19:56:03.615Z,16.00
2024-04-30T20:01:13.228Z,15.90
2024-04-30T20:06:21.316Z,15.80
2024-04-30T20:11:31.486Z,15.90
2024-04-30T20:16:43.765Z,15.60
2024-04-30T20:21:50.702Z,15.40
2024-04-30T20:26:56.327Z,15.30
2024-04-30T20:32:05.329Z,15.40
2024-04-30T20:37:09.440Z,15.30
2024-04-30T20:42:24.822Z,15.10
2024-04-30T20:47:32.422Z,15.10
2024-04-30T20:52:42.772Z,14.80
2024-04-30T20:57:48.280Z,14.70
2024-04-30T21:02:55.124Z,15.00
2024-04-30T21:08:04.414Z,14.90
2024-04-30T21:13:15.070Z,14.70
2024-04-30T21:18:22.001Z,14.70
2024-04-30T21:23:25.833Z,14.70
2024-04-30T21:28:31.683Z,14.50
2024-04-30T21:33:38.719Z,14.40
2024-04-30T21:38:43.421Z,14.40
2024-04-30T21:43:47.403Z,14.50
2024-04-30T21:48:54.585Z,14.70
2024-04-30T21:53:58.770Z,14.30
2024-04-30T21:59:04.361Z,13.80
2024-04-30T22:04:12.392Z,13.60
2024-04-30T22:09:17.396Z,13.50
2024-04-30T22:14:22.399Z,13.50
2024-04-30T22:19:29.768Z,13.30
2024-04-30T22:24:34.569Z,13.30
2024-04-30T22:29:39.548Z,13.20
2024-04-30T22:34:47.496Z,13.10
2024-04-30T22:39:53.355Z,12.90
2024-04-30T22:44:59.171Z,13.10
2024-04-30T22:50:09.596Z,13.00
2024-04-30T22:55:13.309Z,12.90
2024-04-30T23:00:18.946Z,12.90
2024-04-30T23:05:25.901Z,12.90
2024-04-30T23:10:29.916Z,12.70
2024-04-30T23:15:34.855Z,12.50
2024-04-30T23:20:42.162Z,12.40
2024-04-30T23:25:47.016Z,12.30
2024-04-30T23:30:51.327Z,12.40
2024-04-30T23:35:58.618Z,12.60
2024-04-30T23:41:03.251Z,12.80
2024-04-30T23:46:08.430Z,12.80
2024-04-30T23:51:17.518Z,12.70
2024-04-30T23:56:22.713Z,12.50
